Time;durP1;ratioP1;P1;durP2;ratioP2;P2;SDS_P1;SDS_P2;PMS_P1;PMS_P2;Temp;Humidity;BMP_temperature;BMP_pressure;BME280_temperature;BME280_humidity;BME280_pressure;Samples;Min_cycle;Max_cycle;Signal;HPM_P1;HPM_P2
2023/08/23 00:00:17;;;;;;;17.00;15.30;;;;;;;19.86;100.00;98914.74;135821;1274;22545;-84
2023/08/23 00:03:40;;;;;;;15.30;13.70;;;;;;;19.85;100.00;98916.15;135805;1274;25425;-85
2023/08/23 00:06:42;;;;;;;16.10;13.10;;;;;;;19.83;100.00;98907.04;135810;1274;22587;-85
2023/08/23 00:09:45;;;;;;;15.40;13.80;;;;;;;19.78;100.00;98899.02;135833;1274;22488;-84
2023/08/23 00:12:49;;;;;;;16.40;14.40;;;;;;;19.78;100.00;98899.39;135717;1274;24189;-84
2023/08/23 00:15:52;;;;;;;16.20;14.50;;;;;;;19.75;100.00;98897.69;135883;1274;22626;-81
2023/08/23 00:18:55;;;;;;;16.90;15.10;;;;;;;19.77;100.00;98906.81;135959;1274;22557;-80
2023/08/23 00:21:57;;;;;;;17.60;15.50;;;;;;;19.80;100.00;98913.27;135767;1274;22538;-83
2023/08/23 00:25:00;;;;;;;18.10;16.30;;;;;;;19.80;100.00;98917.52;135635;1274;24896;-73
2023/08/23 00:28:03;;;;;;;21.00;18.80;;;;;;;19.80;100.00;98915.23;135685;1274;25153;-83
2023/08/23 00:31:05;;;;;;;21.30;18.70;;;;;;;19.80;100.00;98915.58;135684;1274;25375;-83
2023/08/23 00:34:08;;;;;;;20.50;18.30;;;;;;;19.82;100.00;98915.89;135657;1274;22547;-83
2023/08/23 00:37:10;;;;;;;19.40;17.00;;;;;;;19.84;100.00;98914.44;135670;1274;22592;-83
2023/08/23 00:40:13;;;;;;;18.20;16.40;;;;;;;19.84;100.00;98908.79;135633;1274;24233;-83
2023/08/23 00:43:15;;;;;;;18.50;16.70;;;;;;;19.81;100.00;98909.91;135582;1275;22582;-83
2023/08/23 00:46:18;;;;;;;19.70;17.10;;;;;;;19.78;100.00;98908.58;135725;1274;24191;-84
2023/08/23 00:49:20;;;;;;;19.40;17.00;;;;;;;19.77;100.00;98900.48;135690;1275;25008;-83
2023/08/23 00:52:23;;;;;;;18.60;16.90;;;;;;;19.74;100.00;98895.59;135680;1275;22530;-83
2023/08/23 00:55:26;;;;;;;20.80;18.80;;;;;;;19.72;100.00;98894.05;135747;1274;22540;-82
2023/08/23 00:58:29;;;;;;;21.90;18.00;;;;;;;19.69;100.00;98892.89;135855;1274;22507;-82
2023/08/23 01:01:32;;;;;;;20.10;17.90;;;;;;;19.68;100.00;98891.67;135658;1275;22491;-83
2023/08/23 01:04:34;;;;;;;21.90;19.80;;;;;;;19.66;100.00;98892.98;135776;1271;22532;-82
2023/08/23 01:07:37;;;;;;;23.00;20.80;;;;;;;19.65;100.00;98894.05;135764;1275;22545;-83
2023/08/23 01:10:39;;;;;;;25.30;20.70;;;;;;;19.67;100.00;98896.29;135786;1275;22549;-82
2023/08/23 01:13:42;;;;;;;24.90;22.00;;;;;;;19.68;100.00;98899.80;135922;1275;22848;-82
2023/08/23 01:16:44;;;;;;;23.10;20.80;;;;;;;19.69;100.00;98905.95;135876;1275;23020;-82
2023/08/23 01:19:47;;;;;;;22.50;20.30;;;;;;;19.68;100.00;98895.37;135885;1275;23394;-82
2023/08/23 01:22:50;;;;;;;23.70;21.40;;;;;;;19.65;100.00;98896.86;135841;1274;22525;-84
2023/08/23 01:26:12;;;;;;;24.20;21.60;;;;;;;19.66;100.00;98907.08;135877;1275;24195;-82
2023/08/23 01:29:29;;;;;;;24.90;20.80;;;;;;;19.67;100.00;98915.35;135776;1275;22565;-84
2023/08/23 01:32:32;;;;;;;21.80;19.50;;;;;;;19.64;100.00;98912.95;135829;1274;25487;-83
2023/08/23 01:35:37;;;;;;;22.90;20.70;;;;;;;19.62;100.00;98913.17;135826;1275;22651;-83
2023/08/23 01:38:40;;;;;;;21.20;19.00;;;;;;;19.62;100.00;98910.55;135885;1275;22534;-81
2023/08/23 01:41:42;;;;;;;25.80;19.70;;;;;;;19.57;100.00;98910.48;135651;1274;22567;-82
2023/08/23 01:44:45;;;;;;;25.90;21.40;;;;;;;19.55;100.00;98913.52;135648;1274;23249;-83
2023/08/23 01:48:07;;;;;;;21.90;19.70;;;;;;;19.55;100.00;98905.05;135772;1275;22556;-83
2023/08/23 01:51:17;;;;;;;22.00;19.90;;;;;;;19.51;100.00;98909.35;135781;1274;22559;-84
2023/08/23 01:54:38;;;;;;;26.70;21.50;;;;;;;19.46;100.00;98909.11;136552;1265;22529;-82
2023/08/23 01:57:41;;;;;;;24.10;21.60;;;;;;;19.45;100.00;98907.90;136905;1269;22554;-85
2023/08/23 02:00:44;;;;;;;22.70;20.50;;;;;;;19.46;100.00;98903.83;136766;1276;22187;-84
2023/08/23 02:03:46;;;;;;;25.00;22.60;;;;;;;19.44;100.00;98908.80;136952;1276;22200;-86
2023/08/23 02:06:49;;;;;;;26.20;23.60;;;;;;;19.45;100.00;98913.03;136851;1276;22541;-82
2023/08/23 02:09:51;;;;;;;22.40;20.00;;;;;;;19.45;100.00;98913.71;137401;1276;22127;-84
2023/08/23 02:12:54;;;;;;;21.60;19.50;;;;;;;19.42;100.00;98915.03;136871;1276;22248;-85
2023/08/23 02:15:56;;;;;;;20.00;18.00;;;;;;;19.35;100.00;98913.95;136663;1276;24240;-84
2023/08/23 02:18:59;;;;;;;27.90;18.30;;;;;;;19.30;100.00;98908.42;136965;1276;22574;-83
2023/08/23 02:22:13;;;;;;;25.40;17.10;;;;;;;19.27;100.00;98912.73;136727;1276;22188;-85
2023/08/23 02:25:16;;;;;;;20.50;18.30;;;;;;;19.25;100.00;98920.88;136776;1276;24245;-84
2023/08/23 02:28:19;;;;;;;21.90;18.50;;;;;;;19.22;100.00;98926.59;137408;1276;22280;-84
2023/08/23 02:31:21;;;;;;;20.50;18.50;;;;;;;19.18;100.00;98927.03;136932;1276;22688;-82
2023/08/23 02:34:24;;;;;;;21.60;19.00;;;;;;;19.15;100.00;98926.21;136858;1276;22657;-84
2023/08/23 02:37:27;;;;;;;24.50;19.20;;;;;;;19.12;100.00;98928.76;137277;1269;22495;-84
2023/08/23 02:40:29;;;;;;;23.40;17.80;;;;;;;19.07;100.00;98925.66;136887;1276;22213;-84
2023/08/23 02:43:32;;;;;;;18.70;16.80;;;;;;;19.01;100.00;98925.41;136817;1276;22465;-80
2023/08/23 02:46:37;;;;;;;20.00;17.10;;;;;;;18.95;100.00;98925.36;137249;1276;22740;-81
2023/08/23 02:49:40;;;;;;;19.00;16.30;;;;;;;18.89;100.00;98931.14;136823;1276;22134;-83
2023/08/23 02:52:42;;;;;;;19.50;15.00;;;;;;;18.85;100.00;98934.23;136891;1276;22209;-84
2023/08/23 02:55:45;;;;;;;17.20;15.50;;;;;;;18.81;100.00;98935.71;137099;1276;22206;-85
2023/08/23 02:58:47;;;;;;;15.70;14.30;;;;;;;18.77;100.00;98929.09;136848;1276;22683;-84
2023/08/23 03:01:53;;;;;;;16.30;14.70;;;;;;;18.71;100.00;98921.08;137000;1276;22619;-82
2023/08/23 03:04:58;;;;;;;17.60;14.60;;;;;;;18.68;100.00;98916.23;137039;1276;22544;-85
2023/08/23 03:08:03;;;;;;;14.70;13.50;;;;;;;18.64;100.00;98916.11;136335;1276;23127;-80
2023/08/23 03:11:06;;;;;;;18.40;14.40;;;;;;;18.60;100.00;98908.24;136522;1276;22540;-80
2023/08/23 03:14:08;;;;;;;18.50;15.50;;;;;;;18.55;100.00;98904.63;136712;1276;22174;-85
2023/08/23 03:17:11;;;;;;;19.30;15.10;;;;;;;18.50;100.00;98908.96;136878;1276;23322;-82
2023/08/23 03:20:13;;;;;;;16.20;14.70;;;;;;;18.45;100.00;98913.27;136421;1276;22565;-82
2023/08/23 03:23:16;;;;;;;19.90;15.20;;;;;;;18.42;100.00;98918.98;136566;1276;22588;-81
2023/08/23 03:26:19;;;;;;;19.40;14.90;;;;;;;18.38;100.00;98914.99;136898;1276;22273;-81
2023/08/23 03:29:21;;;;;;;16.20;13.50;;;;;;;18.37;100.00;98910.79;136649;1276;207001;-82
2023/08/23 03:32:25;;;;;;;23.30;13.90;;;;;;;18.34;100.00;98908.20;136902;1272;22238;-84
2023/08/23 03:35:28;;;;;;;18.50;13.80;;;;;;;18.30;100.00;98917.96;136791;1269;22540;-82
2023/08/23 03:38:33;;;;;;;17.90;13.60;;;;;;;18.27;100.00;98930.16;136595;1276;23144;-84
2023/08/23 03:41:37;;;;;;;15.50;13.70;;;;;;;18.28;100.00;98932.63;136552;1276;25268;-84
2023/08/23 03:44:43;;;;;;;25.10;13.50;;;;;;;18.27;100.00;98927.36;136806;1276;22310;-80
2023/08/23 03:47:45;;;;;;;356.10;30.80;;;;;;;18.26;100.00;98925.43;136481;1276;22755;-80
2023/08/23 03:50:48;;;;;;;21.10;14.40;;;;;;;18.26;100.00;98926.83;136714;1276;22555;-83
2023/08/23 03:53:50;;;;;;;19.40;13.40;;;;;;;18.25;100.00;98932.86;137117;1276;22256;-85
2023/08/23 03:56:53;;;;;;;30.80;13.40;;;;;;;18.23;100.00;98940.29;137014;1276;22540;-84
2023/08/23 03:59:55;;;;;;;18.20;13.10;;;;;;;18.23;100.00;98942.39;136995;1276;22519;-82
2023/08/23 04:03:06;;;;;;;20.20;13.20;;;;;;;18.26;100.00;98948.70;136637;1276;23269;-81
2023/08/23 04:06:13;;;;;;;19.50;12.60;;;;;;;18.28;100.00;98948.99;137175;1276;22565;-81
2023/08/23 04:12:32;;;;;;;16.80;12.40;;;;;;;18.20;100.00;98956.88;137105;1276;22544;-81
2023/08/23 04:15:35;;;;;;;17.70;12.00;;;;;;;18.19;100.00;98959.88;136963;1272;22321;-82
2023/08/23 04:18:38;;;;;;;19.80;11.30;;;;;;;18.17;100.00;98963.77;137319;1276;22636;-83
2023/08/23 04:21:40;;;;;;;18.30;12.10;;;;;;;18.16;100.00;98962.39;137111;1276;22252;-84
2023/08/23 04:24:43;;;;;;;15.70;11.90;;;;;;;18.15;100.00;98957.83;137275;1276;22168;-84
2023/08/23 04:27:48;;;;;;;13.90;11.40;;;;;;;18.16;100.00;98956.92;137281;1269;22237;-82
2023/08/23 04:30:56;;;;;;;12.50;10.80;;;;;;;18.15;100.00;98959.05;137286;1272;22239;-81
2023/08/23 04:33:59;;;;;;;15.10;10.80;;;;;;;18.18;100.00;98960.41;137048;1276;22284;-83
2023/08/23 04:37:04;;;;;;;15.50;10.30;;;;;;;18.22;100.00;98965.48;137284;1276;22212;-83
2023/08/23 04:40:13;;;;;;;17.90;10.00;;;;;;;18.27;100.00;98976.33;137259;1276;22627;-81
2023/08/23 04:43:16;;;;;;;12.80;9.80;;;;;;;18.26;100.00;98981.64;137149;1276;22182;-80
2023/08/23 04:46:19;;;;;;;12.20;9.80;;;;;;;18.30;100.00;98979.80;137194;1276;22600;-84
2023/08/23 04:49:23;;;;;;;12.90;9.30;;;;;;;18.31;100.00;98981.18;136945;1276;22256;-85
2023/08/23 04:52:26;;;;;;;12.00;9.30;;;;;;;18.32;100.00;98989.45;137033;1276;22624;-83
2023/08/23 04:55:29;;;;;;;10.80;8.60;;;;;;;18.32;100.00;98994.20;137117;1276;22205;-83
2023/08/23 04:58:38;;;;;;;12.50;8.60;;;;;;;18.32;100.00;98998.09;137157;1276;22607;-83
2023/08/23 05:01:46;;;;;;;35.60;10.10;;;;;;;18.35;100.00;98994.16;137148;1276;22268;-81
2023/08/23 05:04:49;;;;;;;10.30;8.40;;;;;;;18.36;100.00;98990.98;137244;1276;22276;-83
2023/08/23 05:07:58;;;;;;;12.70;8.00;;;;;;;18.38;100.00;98992.52;137266;1276;22335;-84
2023/08/23 05:11:00;;;;;;;12.30;8.80;;;;;;;18.47;100.00;99000.82;137223;1276;22242;-82
2023/08/23 05:14:03;;;;;;;12.10;8.40;;;;;;;18.56;100.00;99004.90;137344;1276;22287;-82
2023/08/23 05:17:06;;;;;;;8.90;7.30;;;;;;;18.60;100.00;99006.24;137307;1275;22202;-83
2023/08/23 05:20:09;;;;;;;16.20;8.60;;;;;;;18.56;100.00;99009.65;137297;1264;22223;-82
2023/08/23 05:23:14;;;;;;;15.40;8.60;;;;;;;18.59;100.00;99009.23;137320;1276;22256;-81
2023/08/23 05:26:17;;;;;;;13.00;7.80;;;;;;;18.65;100.00;99011.11;137307;1276;22299;-82
2023/08/23 05:29:20;;;;;;;9.90;7.50;;;;;;;18.69;100.00;99013.84;137123;1276;22260;-83
2023/08/23 05:32:22;;;;;;;9.30;7.40;;;;;;;18.76;100.00;99019.71;137340;1276;22328;-84
2023/08/23 05:35:25;;;;;;;11.70;7.30;;;;;;;18.89;100.00;99015.59;137234;1272;22558;-84
2023/08/23 05:38:28;;;;;;;9.50;7.00;;;;;;;18.97;100.00;99015.08;137231;1276;22250;-80
2023/08/23 05:41:30;;;;;;;10.00;6.90;;;;;;;19.07;100.00;99018.09;137209;1276;22764;-82
2023/08/23 05:44:33;;;;;;;11.00;8.00;;;;;;;19.22;100.00;99020.27;137122;1276;22267;-83
2023/08/23 05:47:35;;;;;;;11.20;6.80;;;;;;;19.41;100.00;99022.35;137342;1272;22285;-83
2023/08/23 05:50:38;;;;;;;12.90;7.00;;;;;;;19.47;100.00;99029.82;137293;1276;22236;-82
2023/08/23 05:53:40;;;;;;;10.80;6.60;;;;;;;19.53;100.00;99027.92;137305;1275;22210;-81
2023/08/23 05:56:43;;;;;;;10.30;6.70;;;;;;;19.72;100.00;99031.59;137276;1276;22216;-81
2023/08/23 05:59:45;;;;;;;169.20;14.50;;;;;;;19.90;100.00;99029.77;137322;1276;22672;-79
2023/08/23 06:02:48;;;;;;;13.10;6.30;;;;;;;20.02;100.00;99027.77;137282;1276;22957;-79
2023/08/23 06:05:50;;;;;;;9.40;6.70;;;;;;;20.13;100.00;99023.98;137319;1271;22248;-79
2023/08/23 06:08:53;;;;;;;43.70;8.50;;;;;;;20.30;100.00;99022.30;137226;1276;22236;-81
2023/08/23 06:11:56;;;;;;;15.30;7.50;;;;;;;20.56;100.00;99023.45;137324;1276;22240;-81
2023/08/23 06:15:01;;;;;;;7.70;6.40;;;;;;;20.74;100.00;99033.42;137311;1272;22244;-83
2023/08/23 06:18:06;;;;;;;9.70;6.40;;;;;;;20.80;100.00;99036.29;137310;1276;23043;-78
2023/08/23 06:21:09;;;;;;;11.30;7.10;;;;;;;20.84;100.00;99033.53;137283;1276;22722;-81
2023/08/23 06:24:12;;;;;;;11.10;5.80;;;;;;;20.91;100.00;99034.94;137301;1264;22170;-81
2023/08/23 06:27:14;;;;;;;10.80;6.50;;;;;;;21.07;100.00;99032.04;137293;1276;22252;-84
2023/08/23 06:30:17;;;;;;;9.90;6.40;;;;;;;21.20;100.00;99028.33;137234;1269;22292;-80
2023/08/23 06:33:19;;;;;;;17.50;6.80;;;;;;;21.07;100.00;99031.33;137188;1276;22207;-83
2023/08/23 06:36:22;;;;;;;107.20;14.10;;;;;;;21.10;100.00;99029.82;137339;1276;22226;-81
2023/08/23 06:39:24;;;;;;;9.90;5.90;;;;;;;21.42;100.00;99030.02;137372;1276;22181;-82
2023/08/23 06:42:30;;;;;;;25.90;7.40;;;;;;;21.77;100.00;99035.55;137322;1276;22347;-82
2023/08/23 06:45:32;;;;;;;7.80;5.90;;;;;;;21.97;100.00;99033.49;137280;1276;22233;-81
2023/08/23 06:48:35;;;;;;;6.90;5.90;;;;;;;22.02;100.00;99036.02;137321;1275;22327;-82
2023/08/23 06:51:38;;;;;;;9.30;5.90;;;;;;;22.20;100.00;99036.35;137383;1276;22272;-82
2023/08/23 06:54:41;;;;;;;8.70;6.00;;;;;;;22.49;100.00;99038.06;137391;1276;22277;-82
2023/08/23 06:57:43;;;;;;;9.00;6.10;;;;;;;22.62;100.00;99035.88;137164;1276;22445;-82
2023/08/23 07:00:46;;;;;;;11.60;6.60;;;;;;;22.67;100.00;99036.42;137103;1276;22568;-82
2023/08/23 07:03:48;;;;;;;10.50;5.50;;;;;;;22.77;100.00;99038.02;137129;1276;22834;-83
2023/08/23 07:06:51;;;;;;;9.30;6.30;;;;;;;22.83;100.00;99039.77;137341;1276;22235;-84
2023/08/23 07:09:53;;;;;;;9.60;6.90;;;;;;;22.73;100.00;99041.52;137355;1276;22259;-81
2023/08/23 07:12:56;;;;;;;8.60;6.30;;;;;;;22.71;100.00;99043.75;137301;1276;22224;-82
2023/08/23 07:15:59;;;;;;;8.80;6.00;;;;;;;22.98;100.00;99045.33;137337;1275;22268;-81
2023/08/23 07:19:02;;;;;;;9.80;5.80;;;;;;;23.34;100.00;99044.19;137345;1276;22262;-80
2023/08/23 07:22:05;;;;;;;6.70;5.00;;;;;;;23.67;100.00;99046.22;137278;1276;22271;-82
2023/08/23 07:25:08;;;;;;;6.40;4.80;;;;;;;24.01;100.00;99047.00;137311;1276;22173;-81
2023/08/23 07:28:11;;;;;;;1038.20;100.90;;;;;;;24.26;100.00;99051.22;137361;1276;22330;-80
2023/08/23 07:31:14;;;;;;;;;;;;;;;24.40;100.00;99050.31;137280;1276;22376;-83
2023/08/23 07:34:18;;;;;;;12.80;5.20;;;;;;;24.52;100.00;99051.92;137315;1276;22230;-83
2023/08/23 07:37:21;;;;;;;6.20;3.90;;;;;;;24.76;100.00;99051.98;137300;1276;22292;-82
2023/08/23 07:40:24;;;;;;;4.20;3.60;;;;;;;24.66;100.00;99052.92;137351;1275;22161;-82
2023/08/23 07:43:26;;;;;;;20.70;4.70;;;;;;;24.59;100.00;99056.27;137329;1253;23184;-83
2023/08/23 07:46:29;;;;;;;11.40;3.90;;;;;;;24.58;100.00;99054.88;137325;1276;22193;-83
2023/08/23 07:49:32;;;;;;;6.50;3.80;;;;;;;24.75;100.00;99052.73;137361;1276;22279;-84
2023/08/23 07:52:35;;;;;;;5.00;3.90;;;;;;;24.89;100.00;99056.06;137323;1276;22343;-84
2023/08/23 07:55:38;;;;;;;4.20;3.90;;;;;;;24.94;100.00;99061.35;137335;1276;22205;-83
2023/08/23 07:58:41;;;;;;;5.80;4.00;;;;;;;24.90;100.00;99057.27;137333;1276;22241;-82
2023/08/23 08:01:44;;;;;;;4.80;3.90;;;;;;;25.06;100.00;99059.99;137324;1276;22231;-82
2023/08/23 08:04:47;;;;;;;4.80;3.70;;;;;;;25.13;100.00;99059.52;137279;1276;22560;-80
2023/08/23 08:07:49;;;;;;;5.00;3.60;;;;;;;25.27;100.00;99058.72;137246;1276;22780;-82
2023/08/23 08:10:52;;;;;;;4.30;3.40;;;;;;;25.36;100.00;99063.50;137356;1275;22234;-83
2023/08/23 08:13:54;;;;;;;6.30;3.50;;;;;;;25.28;100.00;99062.05;137391;1276;22180;-81
2023/08/23 08:16:57;;;;;;;17.10;5.20;;;;;;;25.32;100.00;99062.59;137323;1269;22188;-83
2023/08/23 08:20:00;;;;;;;9.10;4.20;;;;;;;25.42;100.00;99066.24;137333;1276;22188;-82
2023/08/23 08:23:02;;;;;;;4.40;3.40;;;;;;;25.47;100.00;99070.86;137219;1276;22775;-81
2023/08/23 08:26:10;;;;;;;7.60;4.00;;;;;;;25.52;100.00;99074.89;137065;1276;22535;-80
2023/08/23 08:29:16;;;;;;;222.20;18.90;;;;;;;25.69;100.00;99071.62;137102;1276;23190;-83
2023/08/23 08:32:19;;;;;;;8.10;4.70;;;;;;;25.86;100.00;99074.80;137069;1276;22244;-83
2023/08/23 08:35:22;;;;;;;4.50;3.60;;;;;;;26.06;100.00;99080.80;137244;1276;22181;-82
2023/08/23 08:38:25;;;;;;;4.40;3.60;;;;;;;26.26;100.00;99086.27;136983;1276;22541;-81
2023/08/23 08:41:29;;;;;;;6.00;3.60;;;;;;;26.46;100.00;99090.48;136963;1276;22223;-82
2023/08/23 08:44:31;;;;;;;8.60;3.80;;;;;;;26.35;71.05;99092.11;137095;1276;23000;-84
2023/08/23 08:47:35;;;;;;;75.50;9.40;;;;;;;26.37;64.64;99096.30;137080;1276;22251;-82
2023/08/23 08:50:37;;;;;;;19.00;5.50;;;;;;;26.48;64.60;99094.14;137321;1272;22192;-82
2023/08/23 08:53:40;;;;;;;4.70;3.60;;;;;;;26.48;62.77;99099.16;137048;1276;22653;-82
2023/08/23 08:56:45;;;;;;;7.70;3.80;;;;;;;26.54;64.31;99097.95;137015;1277;22237;-82
2023/08/23 08:59:49;;;;;;;10.60;4.00;;;;;;;26.76;62.59;99096.66;137268;1277;22206;-83
2023/08/23 09:02:52;;;;;;;12.10;4.60;;;;;;;26.62;61.59;99095.77;137245;1277;22060;-84
2023/08/23 09:06:03;;;;;;;17.60;5.00;;;;;;;26.54;61.57;99094.18;137234;1277;22801;-82
2023/08/23 09:09:12;;;;;;;9.00;4.10;;;;;;;26.60;61.05;99096.21;137162;1277;22530;-83
2023/08/23 09:12:17;;;;;;;6.00;3.70;;;;;;;26.59;61.45;99096.66;137256;1277;22589;-82
2023/08/23 09:15:24;;;;;;;6.80;3.70;;;;;;;26.73;61.91;99094.33;137250;1263;22541;-83
2023/08/23 09:18:27;;;;;;;4.30;3.90;;;;;;;26.94;61.27;99094.02;136853;1277;22735;-83
2023/08/23 09:21:33;;;;;;;4.10;3.80;;;;;;;27.06;60.74;99095.42;137158;1277;22183;-83
2023/08/23 09:24:39;;;;;;;5.50;4.30;;;;;;;27.05;60.30;99095.42;136795;1277;23282;-83
2023/08/23 09:27:46;;;;;;;7.60;4.00;;;;;;;27.07;59.86;99102.33;136829;1277;22119;-84
2023/08/23 09:30:51;;;;;;;4.60;4.10;;;;;;;26.96;59.79;99095.37;136848;1277;22409;-82
2023/08/23 09:37:11;;;;;;;24.70;5.90;;;;;;;27.18;60.27;99101.74;136845;1276;24135;-85
2023/08/23 09:40:14;;;;;;;;;;;;;;;27.24;58.58;99103.73;137257;1276;22482;-85
2023/08/23 09:43:21;;;;;;;5.40;4.20;;;;;;;27.34;59.49;99108.63;137166;1276;22883;-85
2023/08/23 09:46:24;;;;;;;6.50;4.70;;;;;;;27.44;57.05;99113.44;137177;1276;22681;-84
2023/08/23 09:49:28;;;;;;;8.30;4.90;;;;;;;27.30;57.85;99111.84;136800;1276;22143;-85
2023/08/23 09:52:33;;;;;;;6.10;3.90;;;;;;;27.60;58.70;99106.88;136635;1276;22572;-85
2023/08/23 09:55:36;;;;;;;5.90;3.90;;;;;;;27.95;57.66;99101.23;137021;1276;22580;-84
2023/08/23 09:58:46;;;;;;;5.20;3.70;;;;;;;28.10;56.32;99098.26;136916;1276;22564;-83
2023/08/23 10:01:50;;;;;;;5.90;3.80;;;;;;;28.00;57.09;99097.59;137165;1276;22222;-84
2023/08/23 10:04:53;;;;;;;5.80;3.80;;;;;;;27.73;57.38;99093.13;137246;1276;22260;-84
2023/08/23 10:07:56;;;;;;;6.20;3.80;;;;;;;27.52;56.22;99096.17;137414;1276;22402;-84
2023/08/23 10:11:02;;;;;;;3.70;3.30;;;;;;;27.54;55.65;99090.39;137298;1276;22559;-85
2023/08/23 10:14:05;;;;;;;5.10;3.90;;;;;;;27.79;55.72;99091.74;137069;1276;22515;-84
2023/08/23 10:17:08;;;;;;;8.80;3.50;;;;;;;27.95;55.19;99092.30;137177;1276;22184;-84
2023/08/23 10:20:13;;;;;;;4.60;4.00;;;;;;;28.12;54.91;99080.96;137302;1276;22550;-85
2023/08/23 10:23:16;;;;;;;6.80;3.50;;;;;;;28.21;53.74;99081.58;137125;1275;22281;-84
2023/08/23 10:26:19;;;;;;;6.50;4.20;;;;;;;27.94;55.03;99079.69;137170;1276;22557;-81
2023/08/23 10:29:22;;;;;;;7.90;3.90;;;;;;;27.89;55.66;99081.89;137165;1276;22590;-86
2023/08/23 10:32:24;;;;;;;9.90;3.50;;;;;;;28.33;54.92;99074.28;137089;1276;23002;-85
2023/08/23 10:35:31;;;;;;;4.50;3.70;;;;;;;28.60;53.75;99075.41;137106;1276;22264;-84
2023/08/23 10:38:34;;;;;;;15.60;4.30;;;;;;;28.51;53.72;99080.77;137091;1276;22518;-84
2023/08/23 10:41:41;;;;;;;12.10;4.00;;;;;;;28.34;54.49;99074.55;137151;1276;22592;-85
2023/08/23 10:44:52;;;;;;;15.60;4.50;;;;;;;28.47;54.23;99068.64;136765;1276;23167;-86
2023/08/23 10:47:55;;;;;;;6.60;4.00;;;;;;;28.54;53.72;99062.13;136958;1276;22217;-84
2023/08/23 10:50:57;;;;;;;6.40;4.30;;;;;;;28.60;53.01;99060.92;137147;1276;22514;-85
2023/08/23 10:54:02;;;;;;;5.60;4.00;;;;;;;28.25;52.50;99062.39;137029;1275;22210;-84
2023/08/23 10:57:05;;;;;;;5.50;4.20;;;;;;;27.78;53.14;99066.75;137332;1275;22204;-84
2023/08/23 11:00:10;;;;;;;6.90;4.20;;;;;;;27.96;54.09;99060.09;137320;1275;22413;-85
2023/08/23 11:03:29;;;;;;;4.30;3.90;;;;;;;28.15;53.63;99061.66;137330;1275;22795;-85
2023/08/23 11:06:49;;;;;;;7.80;4.60;;;;;;;28.18;52.81;99063.13;137084;1275;22284;-84
2023/08/23 11:09:54;;;;;;;4.60;4.00;;;;;;;28.45;52.89;99063.02;137310;1275;22396;-85
2023/08/23 11:12:57;;;;;;;4.50;4.10;;;;;;;28.52;52.41;99057.44;137221;1275;22269;-84
2023/08/23 11:16:09;;;;;;;4.90;3.60;;;;;;;28.45;52.68;99064.98;137267;1275;22241;-86
2023/08/23 11:19:12;;;;;;;4.50;3.70;;;;;;;28.51;52.86;99069.64;137292;1275;22272;-82
2023/08/23 11:22:23;;;;;;;5.20;4.40;;;;;;;28.81;51.46;99070.10;137052;1275;22544;-84
2023/08/23 11:25:35;;;;;;;5.30;4.00;;;;;;;28.76;51.13;99066.83;137119;1275;22490;-83
2023/08/23 11:28:45;;;;;;;4.30;3.90;;;;;;;28.23;52.18;99066.92;137331;1275;22334;-83
2023/08/23 11:31:52;;;;;;;5.90;3.90;;;;;;;28.37;52.12;99066.67;137166;1275;22224;-83
2023/08/23 11:34:57;;;;;;;6.30;3.80;;;;;;;28.61;51.19;99072.15;136928;1266;25223;-82
2023/08/23 11:38:00;;;;;;;4.00;3.60;;;;;;;28.51;51.42;99066.47;137321;1272;22217;-82
2023/08/23 11:41:03;;;;;;;5.30;3.60;;;;;;;28.19;51.92;99071.68;137304;1275;22164;-85
2023/08/23 11:44:06;;;;;;;6.40;3.80;;;;;;;27.87;52.46;99072.70;137413;1275;22649;-84
2023/08/23 11:47:09;;;;;;;6.50;3.70;;;;;;;28.16;52.92;99074.33;137394;1275;22227;-84
2023/08/23 11:50:17;;;;;;;4.50;3.60;;;;;;;28.38;51.18;99074.17;137413;1275;22223;-84
2023/08/23 11:53:30;;;;;;;5.10;3.40;;;;;;;28.00;51.63;99076.27;137223;1275;22340;-84
2023/08/23 11:56:55;;;;;;;4.80;3.90;;;;;;;27.82;52.17;99079.59;137362;1275;22677;-82
2023/08/23 11:59:57;;;;;;;5.70;3.90;;;;;;;28.13;51.67;99078.03;137265;1275;22295;-84
2023/08/23 12:03:16;;;;;;;33.50;6.10;;;;;;;28.40;51.17;99071.52;137095;1275;22294;-85
2023/08/23 12:06:21;;;;;;;5.40;3.80;;;;;;;28.77;49.78;99075.33;137215;1275;22093;-86
2023/08/23 12:09:28;;;;;;;12.50;3.90;;;;;;;28.88;49.23;99070.74;137155;1274;22394;-83
2023/08/23 12:12:33;;;;;;;4.10;3.70;;;;;;;28.62;49.56;99076.77;137206;1275;22209;-85
2023/08/23 12:15:36;;;;;;;4.90;3.40;;;;;;;28.33;50.31;99073.18;137197;1275;22401;-84
2023/08/23 12:18:39;;;;;;;5.80;3.60;;;;;;;28.09;50.23;99075.27;137203;1273;22225;-83
2023/08/23 12:21:42;;;;;;;6.40;3.80;;;;;;;28.14;51.09;99067.98;137075;1272;22199;-82
2023/08/23 12:24:48;;;;;;;4.50;3.40;;;;;;;28.42;50.12;99059.98;137211;1275;22382;-83
2023/08/23 12:27:51;;;;;;;6.00;3.40;;;;;;;28.73;49.19;99057.48;137189;1275;22276;-84
2023/08/23 12:30:56;;;;;;;4.50;3.10;;;;;;;28.89;48.18;99054.77;137242;1275;22306;-80
2023/08/23 12:33:59;;;;;;;4.30;3.40;;;;;;;28.63;48.84;99057.52;137185;1275;22219;-83
2023/08/23 12:37:01;;;;;;;7.20;3.30;;;;;;;28.13;49.07;99063.95;137234;1275;21961;-83
2023/08/23 12:40:07;;;;;;;4.80;3.30;;;;;;;27.77;49.92;99060.23;137290;1275;22195;-84
2023/08/23 12:43:10;;;;;;;4.70;3.40;;;;;;;27.86;49.49;99055.94;137286;1275;22211;-83
2023/08/23 12:46:13;;;;;;;3.90;3.50;;;;;;;28.08;48.66;99055.45;137223;1267;22233;-84
2023/08/23 12:49:15;;;;;;;4.10;3.10;;;;;;;28.34;47.80;99051.88;137357;1275;22607;-86
2023/08/23 12:52:18;;;;;;;3.90;3.00;;;;;;;28.66;47.59;99041.58;137335;1275;22254;-84
2023/08/23 12:55:20;;;;;;;6.10;3.00;;;;;;;28.90;46.00;99037.67;137340;1266;22392;-84
2023/08/23 12:58:23;;;;;;;3.40;2.70;;;;;;;28.98;44.86;99034.90;137362;1275;22209;-84
2023/08/23 13:01:36;;;;;;;;;;;;;;;;;;;;;
2023/08/23 13:04:54;;;;;;;4.40;2.70;;;;;;;28.93;43.27;99043.95;136585;1282;22249;-85
2023/08/23 13:07:57;;;;;;;3.70;2.80;;;;;;;28.88;42.73;99045.54;136620;1282;22279;-84
2023/08/23 13:11:01;;;;;;;4.90;2.60;;;;;;;28.89;42.90;99043.67;136644;1282;22247;-83
2023/08/23 13:14:04;;;;;;;8.20;2.60;;;;;;;29.01;42.11;99035.77;136682;1282;22778;-85
2023/08/23 13:17:28;;;;;;;3.30;2.60;;;;;;;29.11;41.71;99025.14;133524;1299;544790;-83
2023/08/23 13:20:30;;;;;;;3.30;2.30;;;;;;;29.18;42.33;99021.15;136655;1282;22283;-84
2023/08/23 13:23:33;;;;;;;3.50;2.50;;;;;;;29.21;41.11;99027.58;136643;1282;22683;-83
2023/08/23 13:26:36;;;;;;;10.80;2.30;;;;;;;28.90;40.06;99029.83;136888;1280;22648;-82
2023/08/23 13:29:39;;;;;;;2.80;2.10;;;;;;;28.81;39.52;99031.36;134590;1264;3062844;-83
2023/08/23 13:32:41;;;;;;;3.00;1.90;;;;;;;28.81;39.15;99028.17;137181;1266;22244;-82
2023/08/23 13:35:44;;;;;;;3.40;2.00;;;;;;;28.79;38.71;99028.47;137214;1276;22201;-84
2023/08/23 13:38:47;;;;;;;;;;;;;;;28.66;37.34;99026.73;137226;1277;22331;-81
2023/08/23 13:41:50;;;;;;;3.20;2.00;;;;;;;28.53;36.63;99025.32;137191;1263;22279;-83
2023/08/23 13:44:52;;;;;;;7.70;1.90;;;;;;;28.44;36.99;99022.25;137102;1276;22224;-83
2023/08/23 13:47:55;;;;;;;2.50;2.30;;;;;;;28.48;38.33;99019.16;137219;1276;22689;-81
2023/08/23 13:50:58;;;;;;;4.10;2.00;;;;;;;28.39;38.79;99029.17;137166;1276;22276;-83
2023/08/23 13:54:03;;;;;;;4.10;2.10;;;;;;;28.24;38.83;99023.58;137216;1276;22291;-84
2023/08/23 13:57:06;;;;;;;9.50;2.50;;;;;;;28.23;40.03;99019.94;137223;1276;22220;-81
2023/08/23 14:00:09;;;;;;;6.10;2.80;;;;;;;28.30;39.95;99017.92;137216;1276;22234;-83
2023/08/23 14:03:12;;;;;;;;;;;;;;;28.36;39.28;99015.08;137202;1277;22546;-85
2023/08/23 14:06:14;;;;;;;3.20;2.10;;;;;;;28.30;39.33;99015.60;137202;1276;23194;-83
2023/08/23 14:09:17;;;;;;;8.10;2.60;;;;;;;28.35;39.34;99012.23;137245;1276;22228;-84